»·PEaware :: N7727P KFOT-77S

N7727P :: KFOT-77S

FLIGHT INFORMATION

Flight Status: Arrived
Operator: Privately registered:
United States
More flights under this callsign
Pilot: Kyle A. (14988)
Aircraft: PIPER PA-24 COMMANCHE
(PA24)
More flights by this aircraft type
Origin: KFOT Rohnerville
United States
Destination: 77S Hobby
United States
More flights between these airports :: More routes between these airports
Route: FOT V27 CEC V122 PAPLE V495 RGB V448 DRAIN
File this flight plan on PilotEdge
Remarks:
Altitude:
(Current/Filed)
9,000ft
Speed:
(Current/Filed)
150kts
Departed: 14-Mar-18 11:00 AM
Arrived: 14-Mar-18 12:36 PM
Distance/Time
Traveled:
209nm/1:35
Distance/Time
To Go:
Arrived

Flight Plot

Page will automatically refresh every two minutes.

Flight plan parsing failed; only flown route is shown


Map Options




Map Legend


Flown Route
Filed Route
Departure Airport
Arrival Airport
Navaid (VOR, NDB)
Fix

Horizontal Profiles

Position Reports

Time Latitude Longitude Heading Altitude Ground
Speed
14-Mar-18 10:50 40.554760 -124.131804 126 358ft 0kts
14-Mar-18 10:51 40.554759 -124.131801 126 358ft 0kts
14-Mar-18 10:52 40.554757 -124.131799 126 358ft 0kts
14-Mar-18 10:53 40.554756 -124.131796 126 358ft 0kts
14-Mar-18 10:54 40.554742 -124.131772 126 358ft 1kts
14-Mar-18 10:55 40.553819 -124.131244 126 358ft 7kts
14-Mar-18 10:56 40.552047 -124.128190 127 358ft 12kts
14-Mar-18 10:57 40.551120 -124.126724 165 358ft 0kts
14-Mar-18 10:58 40.551117 -124.126723 165 358ft 0kts
14-Mar-18 10:59 40.555011 -124.134630 309 478ft 88kts
14-Mar-18 11:00 40.575109 -124.152654 332 1678ft 96kts
14-Mar-18 11:01 40.593770 -124.167461 329 2541ft 99kts
14-Mar-18 11:02 40.617326 -124.187629 325 3550ft 101kts
14-Mar-18 11:03 40.641057 -124.207967 328 4573ft 102kts
14-Mar-18 11:04 40.666819 -124.230669 324 5568ft 115kts
14-Mar-18 11:05 40.699144 -124.233970 0 6461ft 125kts
14-Mar-18 11:06 40.733215 -124.234745 356 7276ft 122kts
14-Mar-18 11:07 40.768270 -124.234965 356 7915ft 127kts
14-Mar-18 11:08 40.803885 -124.235250 356 8518ft 129kts
14-Mar-18 11:09 40.840334 -124.235426 356 9005ft 136kts
14-Mar-18 11:10 40.880726 -124.235696 356 8990ft 149kts
14-Mar-18 11:11 40.922329 -124.235906 357 8991ft 150kts
14-Mar-18 11:12 40.964280 -124.236123 356 8993ft 150kts
14-Mar-18 11:13 41.006133 -124.236349 356 8995ft 150kts
14-Mar-18 11:14 41.048170 -124.236580 356 8996ft 150kts
14-Mar-18 11:15 41.090114 -124.236823 356 8995ft 151kts
14-Mar-18 11:16 41.132070 -124.237054 356 8996ft 151kts
14-Mar-18 11:17 41.174050 -124.237201 356 8993ft 149kts
14-Mar-18 11:18 41.215527 -124.237426 356 8995ft 149kts
14-Mar-18 11:19 41.256945 -124.237686 356 8995ft 149kts
14-Mar-18 11:20 41.298529 -124.237945 356 8996ft 149kts
14-Mar-18 11:21 41.339986 -124.238173 356 8998ft 149kts
14-Mar-18 11:22 41.381605 -124.238437 356 8999ft 149kts
14-Mar-18 11:23 41.423186 -124.238732 356 8999ft 149kts
14-Mar-18 11:24 41.464858 -124.239005 357 8999ft 149kts
14-Mar-18 11:25 41.506678 -124.239042 357 9005ft 149kts
14-Mar-18 11:26 41.548248 -124.239473 357 9022ft 149kts
14-Mar-18 11:27 41.590224 -124.239599 357 9001ft 150kts
14-Mar-18 11:28 41.631965 -124.239891 356 9001ft 150kts
14-Mar-18 11:29 41.673669 -124.240135 357 9001ft 150kts
14-Mar-18 11:30 41.715523 -124.240344 356 9002ft 150kts
14-Mar-18 11:31 41.757227 -124.240657 356 9001ft 150kts
14-Mar-18 11:32 41.791666 -124.215759 48 9008ft 155kts
14-Mar-18 11:33 41.818341 -124.168627 51 9005ft 162kts
14-Mar-18 11:34 41.844415 -124.120256 52 8998ft 158kts
14-Mar-18 11:35 41.869962 -124.072494 52 8996ft 157kts
14-Mar-18 11:36 41.895330 -124.024945 52 8996ft 156kts
14-Mar-18 11:37 41.920870 -123.977588 52 8995ft 156kts
14-Mar-18 11:38 41.946200 -123.929737 52 8991ft 156kts
14-Mar-18 11:39 41.971616 -123.882222 52 8987ft 156kts
14-Mar-18 11:40 41.992722 -123.842509 52 8984ft 157kts
14-Mar-18 11:41 42.022396 -123.786750 52 8979ft 157kts
14-Mar-18 11:42 42.047722 -123.738972 52 8973ft 157kts
14-Mar-18 11:43 42.068900 -123.698969 52 8967ft 157kts
14-Mar-18 11:44 42.098490 -123.642952 52 8945ft 157kts
14-Mar-18 11:45 42.119539 -123.603107 52 9000ft 153kts
14-Mar-18 11:46 42.144736 -123.555527 52 8989ft 156kts
14-Mar-18 11:47 42.169796 -123.507516 53 8992ft 157kts
14-Mar-18 11:48 42.195055 -123.459515 52 8986ft 157kts
14-Mar-18 11:49 42.224641 -123.403245 53 8980ft 157kts
14-Mar-18 11:50 42.245358 -123.362721 52 8976ft 157kts
14-Mar-18 11:51 42.271179 -123.315069 54 8979ft 157kts
14-Mar-18 11:52 42.295858 -123.266322 54 8979ft 157kts
14-Mar-18 11:53 42.326725 -123.230760 352 8979ft 149kts
14-Mar-18 11:54 42.368474 -123.234437 349 8967ft 150kts
14-Mar-18 11:55 42.409797 -123.241841 349 8970ft 150kts
14-Mar-18 11:56 42.451232 -123.249026 350 8968ft 150kts
14-Mar-18 11:57 42.493248 -123.255979 351 8965ft 153kts
14-Mar-18 11:58 42.535963 -123.261532 351 8959ft 154kts
14-Mar-18 11:59 42.578875 -123.267572 351 8956ft 154kts
14-Mar-18 12:00 42.621684 -123.273222 350 8955ft 154kts
14-Mar-18 12:01 42.664441 -123.279494 350 8956ft 154kts
14-Mar-18 12:02 42.707405 -123.285226 351 8959ft 154kts
14-Mar-18 12:03 42.750063 -123.291102 350 9002ft 153kts
14-Mar-18 12:04 42.792811 -123.297506 351 9012ft 154kts
14-Mar-18 12:05 42.835590 -123.303112 351 9029ft 154kts
14-Mar-18 12:06 42.878540 -123.309291 350 9009ft 155kts
14-Mar-18 12:07 42.921642 -123.315342 351 9001ft 155kts
14-Mar-18 12:08 42.964591 -123.321320 350 9011ft 155kts
14-Mar-18 12:09 43.007626 -123.327487 351 9022ft 155kts
14-Mar-18 12:10 43.050598 -123.333482 350 9031ft 155kts
14-Mar-18 12:11 43.093654 -123.339583 351 9037ft 155kts
14-Mar-18 12:12 43.137103 -123.345715 351 9005ft 156kts
14-Mar-18 12:13 43.180307 -123.351729 350 9007ft 156kts
14-Mar-18 12:14 43.224557 -123.348935 0 9017ft 165kts
14-Mar-18 12:15 43.270126 -123.345725 359 9003ft 159kts
14-Mar-18 12:16 43.314059 -123.342892 0 9001ft 157kts
14-Mar-18 12:17 43.357983 -123.339382 0 9002ft 157kts
14-Mar-18 12:18 43.401776 -123.336421 0 9003ft 157kts
14-Mar-18 12:19 43.445697 -123.333224 0 8840ft 162kts
14-Mar-18 12:20 43.491795 -123.329768 1 8094ft 171kts
14-Mar-18 12:21 43.539400 -123.320846 4 7189ft 172kts
14-Mar-18 12:22 43.586954 -123.312982 4 6391ft 170kts
14-Mar-18 12:23 43.633988 -123.304979 4 5593ft 169kts
14-Mar-18 12:24 43.676066 -123.280220 37 4998ft 166kts
14-Mar-18 12:25 43.706064 -123.249435 33 4997ft 159kts
14-Mar-18 12:26 43.740796 -123.211859 36 4993ft 158kts
14-Mar-18 12:27 43.775559 -123.174433 36 4994ft 158kts
14-Mar-18 12:28 43.810338 -123.136742 36 4839ft 162kts
14-Mar-18 12:29 43.843862 -123.094443 53 4018ft 165kts
14-Mar-18 12:30 43.876939 -123.054787 27 2379ft 146kts
14-Mar-18 12:31 43.909254 -123.037197 20 1743ft 115kts
14-Mar-18 12:32 43.929209 -123.007267 83 1411ft 108kts
14-Mar-18 12:33 43.945297 -122.991026 353 1100ft 81kts
14-Mar-18 12:34 43.943846 -123.007951 183 673ft 68kts
14-Mar-18 12:35 43.928357 -123.006334 171 543ft 15kts
14-Mar-18 12:36 43.927166 -123.006961 353 543ft 7kts
14-Mar-18 12:37 43.929640 -123.007267 354 543ft 10kts
14-Mar-18 12:38 43.930793 -123.007897 323 543ft 0kts
14-Mar-18 12:39 43.930683 -123.007861 356 543ft 0kts
14-Mar-18 12:40 43.930683 -123.007861 356 543ft 0kts
14-Mar-18 12:41 43.930683 -123.007861 356 543ft 0kts
14-Mar-18 12:42 43.930683 -123.007861 356 543ft 0kts
14-Mar-18 12:43 43.930683 -123.007861 356 543ft 0kts
14-Mar-18 12:44 43.930683 -123.007861 356 543ft 0kts
14-Mar-18 12:45 43.930683 -123.007861 356 543ft 0kts
14-Mar-18 12:46 43.930683 -123.007861 356 543ft 0kts
14-Mar-18 12:47 43.930683 -123.007861 356 543ft 0kts
14-Mar-18 12:48 43.930683 -123.007861 356 543ft 0kts
14-Mar-18 12:49 43.930683 -123.007861 356 543ft 0kts

Navigation Log

Ident Type
Flight plan parsing failed, navigation log unavailable